MDT,Max TemperatureF,Mean TemperatureF,Min TemperatureF,Max Dew PointF,MeanDew PointF,Min DewpointF,Max Humidity, Mean Humidity, Min Humidity, Max Sea Level PressureIn, Mean Sea Level PressureIn, Min Sea Level PressureIn, Max VisibilityMiles, Mean VisibilityMiles, Min VisibilityMiles, Max Wind SpeedMPH, Mean Wind SpeedMPH, Max Gust SpeedMPH,PrecipitationIn, CloudCover, Events, WindDirDegrees
2012-10-1,77,56,34,38,33,30,82,50,18,30.34,30.18,29.94,10,10,10,12,4,14,0.00,0,,148
2012-10-2,78,60,42,34,26,16,60,35,9,29.91,29.83,29.68,10,10,10,24,8,30,0.00,0,,279
2012-10-3,48,41,34,34,29,25,82,62,42,30.49,30.24,29.83,10,10,9,28,12,33,T,6,Snow,310
2012-10-4,44,36,27,29,26,24,85,65,45,30.44,30.37,30.27,10,10,10,13,4,15,0.00,7,,223
2012-10-5,44,33,21,27,25,19,81,63,45,30.48,30.39,30.31,10,10,9,16,5,18,T,7,Snow,309
2012-10-6,48,31,14,23,16,8,88,55,21,30.53,30.43,30.30,10,10,10,9,3,13,0.00,3,,155
2012-10-7,63,42,21,25,21,17,84,51,17,30.30,30.15,29.99,10,10,10,14,5,18,0.00,1,,149
2012-10-8,58,42,26,36,24,18,75,49,22,30.04,29.98,29.91,10,10,7,18,4,23,T,4,Rain,214
2012-10-9,56,43,29,34,29,24,82,56,30,30.20,30.12,30.04,10,10,9,12,4,13,0.00,5,,172
2012-10-10,68,46,24,36,27,21,88,55,22,30.13,30.02,29.88,10,10,10,16,5,18,0.00,0,,289
2012-10-11,57,43,29,36,34,28,89,66,43,30.18,30.09,30.00,10,10,10,10,3,13,0.00,4,,194
2012-10-12,74,49,23,31,26,20,92,55,17,30.01,29.89,29.73,10,10,10,10,3,12,0.00,0,,195
2012-10-13,59,47,35,43,33,22,82,62,41,30.21,30.05,29.84,10,10,7,17,6,22,0.02,5,Rain,132
2012-10-14,69,51,33,35,30,26,82,52,21,30.28,30.14,29.91,10,10,10,16,6,23,0.00,1,,178
2012-10-15,65,52,38,39,34,28,85,59,32,29.94,29.87,29.81,10,10,10,26,9,36,T,3,Rain,220
2012-10-16,63,52,41,45,34,17,76,50,24,29.91,29.65,29.48,10,9,1,38,15,48,0.13,6,Rain-Thunderstorm,266
2012-10-17,53,37,21,21,17,12,58,40,21,30.29,30.09,29.93,10,10,10,29,12,35,0.00,4,,277
2012-10-18,61,40,18,24,18,14,77,47,16,30.40,30.27,30.10,10,10,10,12,3,12,0.00,0,,147
2012-10-19,68,48,27,36,28,21,85,52,19,30.07,29.87,29.62,10,10,10,29,9,38,0.00,3,,220
2012-10-20,60,48,36,43,34,24,80,58,36,29.84,29.65,29.52,10,10,6,29,9,33,0.04,6,Rain,310
2012-10-21,51,39,26,28,24,21,78,54,30,29.93,29.87,29.82,10,10,10,8,3,10,0.00,4,,232
2012-10-22,39,31,23,34,30,22,100,82,64,29.89,29.72,29.62,10,6,1,10,3,16,0.14,6,Rain-Snow,89
2012-10-23,42,35,27,32,29,27,100,83,65,30.04,29.82,29.66,10,6,0,24,4,33,0.19,8,Fog-Snow-Thunderstorm,281
2012-10-24,35,29,22,28,25,23,100,88,75,30.23,30.07,29.95,10,7,0,7,2,8,0.03,7,Fog-Snow,283
2012-10-25,30,27,24,26,23,19,92,84,75,30.53,30.30,30.13,10,7,1,10,4,12,0.01,8,Snow,295
2012-10-26,40,29,17,25,21,16,92,70,48,30.54,30.37,30.19,10,10,6,7,1,8,T,4,Snow,67
2012-10-27,46,38,29,32,27,22,92,67,42,30.17,30.10,30.03,10,9,4,13,3,18,T,8,Snow,165
2012-10-28,60,48,36,42,35,30,92,65,37,30.02,29.94,29.86,10,10,10,24,5,31,0.02,6,Rain,188
2012-10-29,64,54,44,41,37,35,83,60,36,30.06,29.96,29.91,10,10,10,25,8,31,0.01,8,,194
2012-10-30,68,50,31,37,31,23,89,55,20,30.13,30.05,29.95,10,10,10,22,7,26,0.00,2,,174
2012-10-31,70,56,41,38,33,27,79,50,20,30.08,29.97,29.86,10,10,10,13,3,15,0.00,0,,131